sensor_id;sensor_type;location;lat;lon;timestamp;pressure;altitude;pressure_sealevel;temperature;humidity
39954;BME280;25631;51.516;-0.470;2023-05-27T00:02:33;102770.53;;;13.28;29.56
39954;BME280;25631;51.516;-0.470;2023-05-27T00:05:10;102767.23;;;13.00;29.62
39954;BME280;25631;51.516;-0.470;2023-05-27T00:07:46;102766.72;;;13.11;29.84
39954;BME280;25631;51.516;-0.470;2023-05-27T00:10:23;102765.91;;;12.97;29.97
39954;BME280;25631;51.516;-0.470;2023-05-27T00:13:00;102767.56;;;12.80;29.98
39954;BME280;25631;51.516;-0.470;2023-05-27T00:15:39;102768.25;;;12.96;30.02
39954;BME280;25631;51.516;-0.470;2023-05-27T00:18:16;102766.61;;;12.91;30.05
39954;BME280;25631;51.516;-0.470;2023-05-27T00:20:53;102764.25;;;12.80;30.20
39954;BME280;25631;51.516;-0.470;2023-05-27T00:23:29;102764.27;;;12.91;30.42
39954;BME280;25631;51.516;-0.470;2023-05-27T00:26:06;102760.89;;;12.71;30.47
39954;BME280;25631;51.516;-0.470;2023-05-27T00:28:43;102757.85;;;12.64;30.50
39954;BME280;25631;51.516;-0.470;2023-05-27T00:31:19;102758.33;;;12.58;30.60
39954;BME280;25631;51.516;-0.470;2023-05-27T00:33:56;102755.26;;;12.74;30.68
39954;BME280;25631;51.516;-0.470;2023-05-27T00:36:32;102749.21;;;12.67;30.80
39954;BME280;25631;51.516;-0.470;2023-05-27T00:39:09;102744.46;;;12.39;30.87
39954;BME280;25631;51.516;-0.470;2023-05-27T00:41:48;102743.86;;;12.65;30.95
39954;BME280;25631;51.516;-0.470;2023-05-27T00:44:25;102742.52;;;12.49;30.97
39954;BME280;25631;51.516;-0.470;2023-05-27T00:47:02;102737.78;;;12.19;31.14
39954;BME280;25631;51.516;-0.470;2023-05-27T00:49:39;102733.36;;;12.48;31.15
39954;BME280;25631;51.516;-0.470;2023-05-27T00:52:21;102729.24;;;12.48;31.20
39954;BME280;25631;51.516;-0.470;2023-05-27T00:54:58;102727.77;;;12.30;31.26
39954;BME280;25631;51.516;-0.470;2023-05-27T00:57:35;102729.91;;;12.46;31.30
39954;BME280;25631;51.516;-0.470;2023-05-27T01:00:13;102729.19;;;12.26;31.46
39954;BME280;25631;51.516;-0.470;2023-05-27T01:02:50;102729.28;;;12.17;31.56
39954;BME280;25631;51.516;-0.470;2023-05-27T01:05:27;102725.22;;;11.92;31.67
39954;BME280;25631;51.516;-0.470;2023-05-27T01:08:12;102722.64;;;12.30;31.63
39954;BME280;25631;51.516;-0.470;2023-05-27T01:10:52;102722.69;;;12.13;31.67
39954;BME280;25631;51.516;-0.470;2023-05-27T01:13:35;102720.76;;;12.00;31.79
39954;BME280;25631;51.516;-0.470;2023-05-27T01:16:17;102717.65;;;12.18;31.84
39954;BME280;25631;51.516;-0.470;2023-05-27T01:18:56;102715.16;;;11.95;32.06
39954;BME280;25631;51.516;-0.470;2023-05-27T01:21:36;102708.79;;;11.71;32.04
39954;BME280;25631;51.516;-0.470;2023-05-27T01:24:13;102706.26;;;11.77;32.14
39954;BME280;25631;51.516;-0.470;2023-05-27T01:26:50;102704.91;;;11.93;32.16
39954;BME280;25631;51.516;-0.470;2023-05-27T01:29:27;102704.71;;;11.91;32.21
39954;BME280;25631;51.516;-0.470;2023-05-27T01:32:07;102705.07;;;11.88;32.26
39954;BME280;25631;51.516;-0.470;2023-05-27T01:37:41;102700.36;;;11.88;32.53
39954;BME280;25631;51.516;-0.470;2023-05-27T01:40:19;102696.72;;;11.53;32.66
39954;BME280;25631;51.516;-0.470;2023-05-27T01:42:57;102697.08;;;11.90;32.70
39954;BME280;25631;51.516;-0.470;2023-05-27T01:45:35;102699.07;;;11.75;32.75
39954;BME280;25631;51.516;-0.470;2023-05-27T01:48:12;102694.83;;;11.47;32.70
39954;BME280;25631;51.516;-0.470;2023-05-27T01:50:49;102693.09;;;11.68;32.73
39954;BME280;25631;51.516;-0.470;2023-05-27T01:53:25;102693.23;;;11.52;32.85
39954;BME280;25631;51.516;-0.470;2023-05-27T01:56:02;102693.07;;;11.79;32.92
39954;BME280;25631;51.516;-0.470;2023-05-27T01:58:38;102692.74;;;11.47;32.98
39954;BME280;25631;51.516;-0.470;2023-05-27T02:01:15;102695.88;;;11.46;32.96
39954;BME280;25631;51.516;-0.470;2023-05-27T02:03:52;102695.98;;;11.51;32.98
39954;BME280;25631;51.516;-0.470;2023-05-27T02:06:28;102694.01;;;11.74;33.03
39954;BME280;25631;51.516;-0.470;2023-05-27T02:09:05;102691.96;;;11.84;33.14
39954;BME280;25631;51.516;-0.470;2023-05-27T02:11:41;102691.50;;;11.42;33.21
39954;BME280;25631;51.516;-0.470;2023-05-27T02:14:17;102692.39;;;11.67;33.27
39954;BME280;25631;51.516;-0.470;2023-05-27T02:16:54;102689.93;;;11.77;33.39
39954;BME280;25631;51.516;-0.470;2023-05-27T02:19:30;102689.24;;;11.36;33.47
39954;BME280;25631;51.516;-0.470;2023-05-27T02:22:07;102686.13;;;11.25;33.52
39954;BME280;25631;51.516;-0.470;2023-05-27T02:24:44;102681.09;;;11.50;33.53
39954;BME280;25631;51.516;-0.470;2023-05-27T02:27:20;102681.38;;;11.40;33.54
39954;BME280;25631;51.516;-0.470;2023-05-27T02:29:57;102681.14;;;11.42;33.52
39954;BME280;25631;51.516;-0.470;2023-05-27T02:32:34;102682.39;;;11.62;33.66
39954;BME280;25631;51.516;-0.470;2023-05-27T02:35:13;102678.72;;;11.61;33.61
39954;BME280;25631;51.516;-0.470;2023-05-27T02:37:49;102677.16;;;11.48;33.63
39954;BME280;25631;51.516;-0.470;2023-05-27T02:40:27;102677.48;;;11.63;33.66
39954;BME280;25631;51.516;-0.470;2023-05-27T02:43:03;102674.51;;;11.50;33.70
39954;BME280;25631;51.516;-0.470;2023-05-27T02:45:40;102671.69;;;11.14;33.72
39954;BME280;25631;51.516;-0.470;2023-05-27T02:48:17;102669.70;;;11.71;33.82
39954;BME280;25631;51.516;-0.470;2023-05-27T02:50:53;102669.77;;;11.61;33.84
39954;BME280;25631;51.516;-0.470;2023-05-27T02:53:30;102670.16;;;11.36;33.87
39954;BME280;25631;51.516;-0.470;2023-05-27T02:56:07;102664.51;;;11.46;33.89
39954;BME280;25631;51.516;-0.470;2023-05-27T02:58:43;102665.42;;;11.22;33.90
39954;BME280;25631;51.516;-0.470;2023-05-27T03:01:20;102662.83;;;11.48;33.99
39954;BME280;25631;51.516;-0.470;2023-05-27T03:03:57;102660.51;;;11.50;33.95
39954;BME280;25631;51.516;-0.470;2023-05-27T03:06:33;102659.62;;;11.39;33.98
39954;BME280;25631;51.516;-0.470;2023-05-27T03:09:10;102657.57;;;11.26;34.05
39954;BME280;25631;51.516;-0.470;2023-05-27T03:11:47;102659.49;;;11.43;34.08
39954;BME280;25631;51.516;-0.470;2023-05-27T03:14:24;102659.47;;;11.18;34.07
39954;BME280;25631;51.516;-0.470;2023-05-27T03:17:00;102660.77;;;11.22;34.17
39954;BME280;25631;51.516;-0.470;2023-05-27T03:19:37;102656.66;;;10.93;34.34
39954;BME280;25631;51.516;-0.470;2023-05-27T03:22:14;102656.12;;;11.21;34.38
39954;BME280;25631;51.516;-0.470;2023-05-27T03:24:50;102653.42;;;11.19;34.38
39954;BME280;25631;51.516;-0.470;2023-05-27T03:27:28;102650.37;;;10.87;34.56
39954;BME280;25631;51.516;-0.470;2023-05-27T03:30:06;102651.30;;;10.92;34.61
39954;BME280;25631;51.516;-0.470;2023-05-27T03:32:42;102651.73;;;10.95;34.71
39954;BME280;25631;51.516;-0.470;2023-05-27T03:35:19;102649.16;;;10.90;34.72
39954;BME280;25631;51.516;-0.470;2023-05-27T03:37:56;102649.46;;;10.93;34.87
39954;BME280;25631;51.516;-0.470;2023-05-27T03:40:32;102652.14;;;10.98;34.96
39954;BME280;25631;51.516;-0.470;2023-05-27T03:43:09;102652.65;;;11.03;34.96
39954;BME280;25631;51.516;-0.470;2023-05-27T03:45:45;102656.87;;;10.82;35.02
39954;BME280;25631;51.516;-0.470;2023-05-27T03:48:22;102655.21;;;10.92;35.01
39954;BME280;25631;51.516;-0.470;2023-05-27T03:50:58;102656.18;;;10.78;35.08
39954;BME280;25631;51.516;-0.470;2023-05-27T03:53:35;102652.37;;;10.59;35.07
39954;BME280;25631;51.516;-0.470;2023-05-27T03:56:11;102647.68;;;10.83;35.13
39954;BME280;25631;51.516;-0.470;2023-05-27T03:58:49;102645.81;;;10.66;35.20
39954;BME280;25631;51.516;-0.470;2023-05-27T04:01:31;102644.35;;;10.86;35.21
39954;BME280;25631;51.516;-0.470;2023-05-27T04:04:07;102641.05;;;10.80;35.21
39954;BME280;25631;51.516;-0.470;2023-05-27T04:06:44;102644.04;;;11.00;35.23
39954;BME280;25631;51.516;-0.470;2023-05-27T04:09:20;102644.29;;;10.71;35.35
39954;BME280;25631;51.516;-0.470;2023-05-27T04:12:02;102646.88;;;10.67;35.42
39954;BME280;25631;51.516;-0.470;2023-05-27T04:14:39;102648.11;;;10.76;35.44
39954;BME280;25631;51.516;-0.470;2023-05-27T04:17:15;102646.44;;;10.93;35.41
39954;BME280;25631;51.516;-0.470;2023-05-27T04:19:51;102643.63;;;10.40;35.38
39954;BME280;25631;51.516;-0.470;2023-05-27T04:22:28;102647.52;;;10.77;35.30
39954;BME280;25631;51.516;-0.470;2023-05-27T04:25:05;102647.55;;;10.45;35.26
39954;BME280;25631;51.516;-0.470;2023-05-27T04:27:42;102643.66;;;10.73;35.20
39954;BME280;25631;51.516;-0.470;2023-05-27T04:30:18;102647.11;;;10.78;35.25
39954;BME280;25631;51.516;-0.470;2023-05-27T04:32:55;102645.07;;;10.63;35.27
39954;BME280;25631;51.516;-0.470;2023-05-27T04:35:31;102645.44;;;10.68;35.18
39954;BME280;25631;51.516;-0.470;2023-05-27T04:38:08;102642.66;;;10.50;35.19
39954;BME280;25631;51.516;-0.470;2023-05-27T04:40:45;102637.26;;;10.98;35.22
39954;BME280;25631;51.516;-0.470;2023-05-27T04:43:22;102636.69;;;10.75;35.23
39954;BME280;25631;51.516;-0.470;2023-05-27T04:45:58;102634.99;;;10.48;35.33
39954;BME280;25631;51.516;-0.470;2023-05-27T04:48:35;102633.07;;;10.54;35.41
39954;BME280;25631;51.516;-0.470;2023-05-27T04:51:11;102631.62;;;10.47;35.43
39954;BME280;25631;51.516;-0.470;2023-05-27T04:53:48;102630.60;;;10.73;35.49
39954;BME280;25631;51.516;-0.470;2023-05-27T04:56:25;102634.63;;;10.76;35.69
39954;BME280;25631;51.516;-0.470;2023-05-27T04:59:02;102637.41;;;10.66;35.79
39954;BME280;25631;51.516;-0.470;2023-05-27T05:01:38;102636.93;;;10.45;35.89
39954;BME280;25631;51.516;-0.470;2023-05-27T05:04:18;102637.31;;;10.68;35.94
39954;BME280;25631;51.516;-0.470;2023-05-27T05:06:54;102636.72;;;10.55;36.16
39954;BME280;25631;51.516;-0.470;2023-05-27T05:09:31;102633.87;;;10.66;36.09
39954;BME280;25631;51.516;-0.470;2023-05-27T05:12:07;102635.28;;;10.81;36.10
39954;BME280;25631;51.516;-0.470;2023-05-27T05:14:44;102634.86;;;10.41;36.15
39954;BME280;25631;51.516;-0.470;2023-05-27T05:17:20;102638.65;;;10.74;36.22
39954;BME280;25631;51.516;-0.470;2023-05-27T05:19:57;102633.44;;;11.04;36.26
39954;BME280;25631;51.516;-0.470;2023-05-27T05:22:33;102632.95;;;10.89;36.29
39954;BME280;25631;51.516;-0.470;2023-05-27T05:25:10;102634.17;;;10.13;36.34
39954;BME280;25631;51.516;-0.470;2023-05-27T05:27:46;102632.90;;;10.77;36.21
39954;BME280;25631;51.516;-0.470;2023-05-27T05:30:23;102631.92;;;11.02;36.27
39954;BME280;25631;51.516;-0.470;2023-05-27T05:32:59;102630.14;;;10.91;36.33
39954;BME280;25631;51.516;-0.470;2023-05-27T05:35:36;102627.49;;;10.79;36.31
39954;BME280;25631;51.516;-0.470;2023-05-27T05:38:13;102629.16;;;11.25;36.37
39954;BME280;25631;51.516;-0.470;2023-05-27T05:40:49;102629.61;;;10.86;36.40
39954;BME280;25631;51.516;-0.470;2023-05-27T05:43:26;102633.77;;;10.93;36.36
39954;BME280;25631;51.516;-0.470;2023-05-27T05:46:02;102634.40;;;10.94;36.38
39954;BME280;25631;51.516;-0.470;2023-05-27T05:48:40;102635.57;;;11.01;36.35
39954;BME280;25631;51.516;-0.470;2023-05-27T05:51:16;102636.34;;;11.18;36.40
39954;BME280;25631;51.516;-0.470;2023-05-27T05:53:53;102641.78;;;10.84;36.35
39954;BME280;25631;51.516;-0.470;2023-05-27T05:56:29;102643.96;;;11.00;36.30
39954;BME280;25631;51.516;-0.470;2023-05-27T05:59:06;102639.86;;;11.50;36.24
39954;BME280;25631;51.516;-0.470;2023-05-27T06:01:42;102641.31;;;11.35;36.30
39954;BME280;25631;51.516;-0.470;2023-05-27T06:04:19;102636.96;;;11.44;36.19
39954;BME280;25631;51.516;-0.470;2023-05-27T06:06:56;102637.00;;;11.25;36.08
39954;BME280;25631;51.516;-0.470;2023-05-27T06:09:32;102635.45;;;11.56;36.14
39954;BME280;25631;51.516;-0.470;2023-05-27T06:12:08;102633.28;;;11.39;36.04
39954;BME280;25631;51.516;-0.470;2023-05-27T06:14:45;102635.82;;;11.39;35.85
39954;BME280;25631;51.516;-0.470;2023-05-27T06:17:21;102631.55;;;11.39;35.87
39954;BME280;25631;51.516;-0.470;2023-05-27T06:19:58;102631.25;;;11.28;35.80
39954;BME280;25631;51.516;-0.470;2023-05-27T06:22:35;102631.48;;;11.48;35.76
39954;BME280;25631;51.516;-0.470;2023-05-27T06:25:11;102631.73;;;11.64;35.66
39954;BME280;25631;51.516;-0.470;2023-05-27T06:27:48;102628.14;;;11.33;35.68
39954;BME280;25631;51.516;-0.470;2023-05-27T06:30:24;102623.47;;;11.45;35.64
39954;BME280;25631;51.516;-0.470;2023-05-27T06:33:01;102621.14;;;11.69;35.53
39954;BME280;25631;51.516;-0.470;2023-05-27T06:35:38;102622.99;;;11.57;35.41
39954;BME280;25631;51.516;-0.470;2023-05-27T06:38:15;102616.69;;;11.69;35.26
39954;BME280;25631;51.516;-0.470;2023-05-27T06:40:51;102616.39;;;11.61;35.30
39954;BME280;25631;51.516;-0.470;2023-05-27T06:43:27;102616.95;;;11.97;35.22
39954;BME280;25631;51.516;-0.470;2023-05-27T06:46:04;102612.56;;;11.72;35.14
39954;BME280;25631;51.516;-0.470;2023-05-27T06:48:40;102609.36;;;11.70;35.09
39954;BME280;25631;51.516;-0.470;2023-05-27T06:51:17;102608.33;;;11.99;34.96
39954;BME280;25631;51.516;-0.470;2023-05-27T06:53:54;102598.82;;;12.06;34.87
39954;BME280;25631;51.516;-0.470;2023-05-27T06:56:31;102600.11;;;12.10;34.67
39954;BME280;25631;51.516;-0.470;2023-05-27T06:59:07;102600.85;;;12.27;34.57
39954;BME280;25631;51.516;-0.470;2023-05-27T07:01:44;102599.73;;;12.13;34.34
39954;BME280;25631;51.516;-0.470;2023-05-27T07:04:21;102598.51;;;12.01;34.32
39954;BME280;25631;51.516;-0.470;2023-05-27T07:06:57;102595.80;;;12.24;34.19
39954;BME280;25631;51.516;-0.470;2023-05-27T07:09:34;102588.83;;;12.20;34.18
39954;BME280;25631;51.516;-0.470;2023-05-27T07:12:10;102582.61;;;12.43;34.31
39954;BME280;25631;51.516;-0.470;2023-05-27T07:14:47;102579.34;;;12.67;34.25
39954;BME280;25631;51.516;-0.470;2023-05-27T07:17:23;102579.10;;;12.42;34.07
39954;BME280;25631;51.516;-0.470;2023-05-27T07:20:00;102581.08;;;12.77;33.82
39954;BME280;25631;51.516;-0.470;2023-05-27T07:22:36;102579.37;;;12.69;33.58
39954;BME280;25631;51.516;-0.470;2023-05-27T07:25:13;102580.88;;;12.75;33.58
39954;BME280;25631;51.516;-0.470;2023-05-27T07:27:50;102575.43;;;12.78;33.52
39954;BME280;25631;51.516;-0.470;2023-05-27T07:30:26;102572.65;;;12.65;33.54
39954;BME280;25631;51.516;-0.470;2023-05-27T07:33:03;102573.09;;;12.89;33.40
39954;BME280;25631;51.516;-0.470;2023-05-27T07:35:40;102573.22;;;13.13;33.25
39954;BME280;25631;51.516;-0.470;2023-05-27T07:38:16;102576.58;;;13.35;33.00
39954;BME280;25631;51.516;-0.470;2023-05-27T07:40:53;102572.13;;;13.24;32.83
39954;BME280;25631;51.516;-0.470;2023-05-27T07:43:29;102566.34;;;13.50;32.70
39954;BME280;25631;51.516;-0.470;2023-05-27T07:46:06;102560.43;;;13.29;32.74
39954;BME280;25631;51.516;-0.470;2023-05-27T07:48:42;102555.77;;;12.98;32.58
39954;BME280;25631;51.516;-0.470;2023-05-27T07:51:19;102553.80;;;13.31;32.58
39954;BME280;25631;51.516;-0.470;2023-05-27T07:53:56;102556.18;;;13.07;32.66
39954;BME280;25631;51.516;-0.470;2023-05-27T07:56:32;102551.38;;;13.27;32.49
39954;BME280;25631;51.516;-0.470;2023-05-27T07:59:08;102547.52;;;13.30;32.30
39954;BME280;25631;51.516;-0.470;2023-05-27T08:01:45;102551.79;;;13.13;32.34
39954;BME280;25631;51.516;-0.470;2023-05-27T08:04:22;102548.14;;;13.20;32.29
39954;BME280;25631;51.516;-0.470;2023-05-27T08:06:58;102543.91;;;13.06;32.36
39954;BME280;25631;51.516;-0.470;2023-05-27T08:09:35;102543.05;;;13.29;32.41
39954;BME280;25631;51.516;-0.470;2023-05-27T08:12:12;102538.16;;;13.22;32.42
39954;BME280;25631;51.516;-0.470;2023-05-27T08:14:49;102541.79;;;13.52;32.27
39954;BME280;25631;51.516;-0.470;2023-05-27T08:17:26;102540.79;;;13.60;31.83
39954;BME280;25631;51.516;-0.470;2023-05-27T08:20:02;102545.67;;;13.65;31.66
39954;BME280;25631;51.516;-0.470;2023-05-27T08:22:41;102537.39;;;13.66;31.44
39954;BME280;25631;51.516;-0.470;2023-05-27T08:25:17;102538.41;;;13.84;31.45
39954;BME280;25631;51.516;-0.470;2023-05-27T08:27:54;102535.50;;;13.93;31.64
39954;BME280;25631;51.516;-0.470;2023-05-27T08:30:32;102531.92;;;14.10;31.50
39954;BME280;25631;51.516;-0.470;2023-05-27T08:33:09;102531.35;;;14.05;31.41
39954;BME280;25631;51.516;-0.470;2023-05-27T08:35:45;102529.80;;;13.73;31.36
39954;BME280;25631;51.516;-0.470;2023-05-27T08:38:22;102518.38;;;13.72;31.22
39954;BME280;25631;51.516;-0.470;2023-05-27T08:40:59;102520.86;;;14.18;31.29
39954;BME280;25631;51.516;-0.470;2023-05-27T08:43:36;102523.05;;;13.89;31.23
39954;BME280;25631;51.516;-0.470;2023-05-27T08:46:13;102518.81;;;14.07;30.90
39954;BME280;25631;51.516;-0.470;2023-05-27T08:48:50;102520.01;;;14.12;30.85
39954;BME280;25631;51.516;-0.470;2023-05-27T08:51:27;102515.45;;;14.25;30.92
39954;BME280;25631;51.516;-0.470;2023-05-27T08:54:04;102514.63;;;14.20;30.94
39954;BME280;25631;51.516;-0.470;2023-05-27T08:56:42;102513.34;;;14.24;30.62
39954;BME280;25631;51.516;-0.470;2023-05-27T08:59:19;102507.67;;;14.36;30.57
39954;BME280;25631;51.516;-0.470;2023-05-27T09:01:56;102507.77;;;14.45;30.71
39954;BME280;25631;51.516;-0.470;2023-05-27T09:04:33;102503.72;;;14.64;30.69
39954;BME280;25631;51.516;-0.470;2023-05-27T09:07:10;102501.32;;;14.41;30.27
39954;BME280;25631;51.516;-0.470;2023-05-27T09:09:56;102502.26;;;14.43;30.16
39954;BME280;25631;51.516;-0.470;2023-05-27T09:12:33;102501.77;;;14.51;30.17
39954;BME280;25631;51.516;-0.470;2023-05-27T09:15:11;102500.29;;;14.39;29.99
39954;BME280;25631;51.516;-0.470;2023-05-27T09:17:48;102498.19;;;14.55;30.00
39954;BME280;25631;51.516;-0.470;2023-05-27T09:20:25;102493.89;;;14.94;29.94
39954;BME280;25631;51.516;-0.470;2023-05-27T09:23:03;102494.88;;;15.18;29.99
39954;BME280;25631;51.516;-0.470;2023-05-27T09:25:40;102486.35;;;14.73;29.88
39954;BME280;25631;51.516;-0.470;2023-05-27T09:28:22;102482.19;;;15.03;29.73
39954;BME280;25631;51.516;-0.470;2023-05-27T09:30:59;102473.36;;;15.19;29.72
39954;BME280;25631;51.516;-0.470;2023-05-27T09:33:37;102471.52;;;14.97;29.65
39954;BME280;25631;51.516;-0.470;2023-05-27T09:36:20;102468.00;;;15.30;29.64
39954;BME280;25631;51.516;-0.470;2023-05-27T09:38:58;102466.74;;;15.39;29.76
39954;BME280;25631;51.516;-0.470;2023-05-27T09:41:35;102463.60;;;15.73;29.62
39954;BME280;25631;51.516;-0.470;2023-05-27T09:44:11;102459.16;;;15.81;29.66
39954;BME280;25631;51.516;-0.470;2023-05-27T09:46:49;102463.56;;;15.82;29.65
39954;BME280;25631;51.516;-0.470;2023-05-27T09:49:30;102461.21;;;15.94;29.32
39954;BME280;25631;51.516;-0.470;2023-05-27T09:52:11;102461.73;;;16.04;29.18
39954;BME280;25631;51.516;-0.470;2023-05-27T09:54:48;102460.36;;;15.51;28.88
39954;BME280;25631;51.516;-0.470;2023-05-27T09:57:26;102459.22;;;16.05;28.67
39954;BME280;25631;51.516;-0.470;2023-05-27T10:00:04;102458.27;;;15.85;28.81
39954;BME280;25631;51.516;-0.470;2023-05-27T10:02:44;102455.41;;;15.70;28.85
39954;BME280;25631;51.516;-0.470;2023-05-27T10:05:21;102454.49;;;15.46;28.80
39954;BME280;25631;51.516;-0.470;2023-05-27T10:07:57;102448.84;;;15.84;28.99
39954;BME280;25631;51.516;-0.470;2023-05-27T10:10:34;102446.04;;;15.92;28.75
39954;BME280;25631;51.516;-0.470;2023-05-27T10:13:12;102445.79;;;15.84;28.68
39954;BME280;25631;51.516;-0.470;2023-05-27T10:15:51;102450.45;;;15.98;28.64
39954;BME280;25631;51.516;-0.470;2023-05-27T10:18:29;102450.35;;;16.07;28.39
39954;BME280;25631;51.516;-0.470;2023-05-27T10:21:06;102443.97;;;16.09;28.25
39954;BME280;25631;51.516;-0.470;2023-05-27T10:23:55;102437.47;;;15.91;28.02
39954;BME280;25631;51.516;-0.470;2023-05-27T10:26:33;102435.80;;;16.41;28.18
39954;BME280;25631;51.516;-0.470;2023-05-27T10:29:11;102434.45;;;16.43;28.40
39954;BME280;25631;51.516;-0.470;2023-05-27T10:31:49;102428.12;;;16.41;28.25
39954;BME280;25631;51.516;-0.470;2023-05-27T10:34:34;102422.15;;;16.41;27.99
39954;BME280;25631;51.516;-0.470;2023-05-27T10:37:19;102418.60;;;16.54;27.77
39954;BME280;25631;51.516;-0.470;2023-05-27T10:39:56;102416.16;;;16.25;27.49
39954;BME280;25631;51.516;-0.470;2023-05-27T10:42:33;102407.03;;;16.35;27.33
39954;BME280;25631;51.516;-0.470;2023-05-27T10:45:10;102398.03;;;16.43;27.30
39954;BME280;25631;51.516;-0.470;2023-05-27T10:47:47;102402.11;;;16.28;27.29
39954;BME280;25631;51.516;-0.470;2023-05-27T10:50:30;102395.10;;;16.37;27.22
39954;BME280;25631;51.516;-0.470;2023-05-27T10:53:07;102386.91;;;16.54;27.25
39954;BME280;25631;51.516;-0.470;2023-05-27T10:55:44;102386.82;;;16.77;26.89
39954;BME280;25631;51.516;-0.470;2023-05-27T10:58:21;102384.60;;;16.68;26.48
39954;BME280;25631;51.516;-0.470;2023-05-27T11:00:59;102387.10;;;16.64;26.58
39954;BME280;25631;51.516;-0.470;2023-05-27T11:03:42;102384.42;;;16.78;26.51
39954;BME280;25631;51.516;-0.470;2023-05-27T11:06:19;102388.39;;;17.03;26.67
39954;BME280;25631;51.516;-0.470;2023-05-27T11:08:55;102381.77;;;16.84;26.50
39954;BME280;25631;51.516;-0.470;2023-05-27T11:11:32;102375.32;;;17.05;26.40
39954;BME280;25631;51.516;-0.470;2023-05-27T11:14:08;102373.33;;;17.41;26.43
39954;BME280;25631;51.516;-0.470;2023-05-27T11:16:46;102381.31;;;17.18;26.38
39954;BME280;25631;51.516;-0.470;2023-05-27T11:19:23;102376.95;;;17.53;25.60
39954;BME280;25631;51.516;-0.470;2023-05-27T11:21:59;102376.97;;;17.92;25.76
39954;BME280;25631;51.516;-0.470;2023-05-27T11:24:36;102370.87;;;18.23;25.72
39954;BME280;25631;51.516;-0.470;2023-05-27T11:27:14;102365.82;;;17.91;25.64
39954;BME280;25631;51.516;-0.470;2023-05-27T11:29:51;102365.70;;;18.19;25.20
39954;BME280;25631;51.516;-0.470;2023-05-27T11:32:33;102358.51;;;17.86;24.93
39954;BME280;25631;51.516;-0.470;2023-05-27T11:35:14;102357.51;;;18.17;24.94
39954;BME280;25631;51.516;-0.470;2023-05-27T11:37:52;102356.06;;;18.40;24.91
39954;BME280;25631;51.516;-0.470;2023-05-27T11:40:34;102348.20;;;18.35;24.69
39954;BME280;25631;51.516;-0.470;2023-05-27T11:43:16;102345.57;;;18.15;24.90
39954;BME280;25631;51.516;-0.470;2023-05-27T11:46:03;102337.60;;;18.67;24.96
39954;BME280;25631;51.516;-0.470;2023-05-27T11:48:39;102334.54;;;18.65;24.75
39954;BME280;25631;51.516;-0.470;2023-05-27T11:51:16;102325.22;;;18.40;24.57
39954;BME280;25631;51.516;-0.470;2023-05-27T11:53:54;102319.09;;;18.55;24.12
39954;BME280;25631;51.516;-0.470;2023-05-27T11:56:31;102319.77;;;18.59;24.48
39954;BME280;25631;51.516;-0.470;2023-05-27T11:59:08;102315.95;;;18.55;24.12
39954;BME280;25631;51.516;-0.470;2023-05-27T12:01:45;102316.26;;;18.58;24.13
39954;BME280;25631;51.516;-0.470;2023-05-27T12:04:22;102305.88;;;18.91;24.03
39954;BME280;25631;51.516;-0.470;2023-05-27T12:07:00;102302.10;;;19.09;24.20
39954;BME280;25631;51.516;-0.470;2023-05-27T12:09:37;102298.93;;;19.16;23.81
39954;BME280;25631;51.516;-0.470;2023-05-27T12:12:13;102299.36;;;19.19;23.64
39954;BME280;25631;51.516;-0.470;2023-05-27T12:14:50;102295.39;;;18.87;23.33
39954;BME280;25631;51.516;-0.470;2023-05-27T12:17:26;102295.73;;;19.34;23.21
39954;BME280;25631;51.516;-0.470;2023-05-27T12:20:03;102286.97;;;19.07;23.14
39954;BME280;25631;51.516;-0.470;2023-05-27T12:22:40;102283.94;;;19.31;23.00
39954;BME280;25631;51.516;-0.470;2023-05-27T12:25:17;102280.20;;;19.76;23.37
39954;BME280;25631;51.516;-0.470;2023-05-27T12:27:53;102275.91;;;19.45;23.29
39954;BME280;25631;51.516;-0.470;2023-05-27T12:30:30;102274.75;;;19.61;23.03
39954;BME280;25631;51.516;-0.470;2023-05-27T12:33:06;102269.89;;;19.67;22.71
39954;BME280;25631;51.516;-0.470;2023-05-27T12:35:43;102270.08;;;19.73;22.83
39954;BME280;25631;51.516;-0.470;2023-05-27T12:38:20;102272.68;;;19.86;22.18
39954;BME280;25631;51.516;-0.470;2023-05-27T12:40:56;102263.92;;;20.06;21.90
39954;BME280;25631;51.516;-0.470;2023-05-27T12:43:33;102258.76;;;20.01;22.15
39954;BME280;25631;51.516;-0.470;2023-05-27T12:46:10;102256.57;;;20.13;22.42
39954;BME280;25631;51.516;-0.470;2023-05-27T12:48:46;102256.34;;;20.41;22.37
39954;BME280;25631;51.516;-0.470;2023-05-27T12:51:23;102252.02;;;20.65;21.97
39954;BME280;25631;51.516;-0.470;2023-05-27T12:53:59;102250.40;;;20.86;21.80
39954;BME280;25631;51.516;-0.470;2023-05-27T12:56:36;102252.47;;;21.04;21.55
39954;BME280;25631;51.516;-0.470;2023-05-27T12:59:12;102241.94;;;20.89;21.38
39954;BME280;25631;51.516;-0.470;2023-05-27T13:01:49;102229.06;;;21.21;21.50
39954;BME280;25631;51.516;-0.470;2023-05-27T13:04:25;102227.59;;;21.15;21.57
39954;BME280;25631;51.516;-0.470;2023-05-27T13:07:02;102223.59;;;21.04;21.37
39954;BME280;25631;51.516;-0.470;2023-05-27T13:09:40;102224.21;;;20.98;21.15
39954;BME280;25631;51.516;-0.470;2023-05-27T13:12:16;102220.57;;;21.35;20.95
39954;BME280;25631;51.516;-0.470;2023-05-27T13:14:52;102218.78;;;21.18;21.34
39954;BME280;25631;51.516;-0.470;2023-05-27T13:17:29;102213.58;;;21.36;21.47
39954;BME280;25631;51.516;-0.470;2023-05-27T13:20:07;102213.61;;;21.45;21.42
39954;BME280;25631;51.516;-0.470;2023-05-27T13:22:44;102210.87;;;21.67;21.15
39954;BME280;25631;51.516;-0.470;2023-05-27T13:25:20;102209.05;;;21.79;20.95
39954;BME280;25631;51.516;-0.470;2023-05-27T13:27:57;102210.37;;;21.73;20.85
39954;BME280;25631;51.516;-0.470;2023-05-27T13:30:33;102209.95;;;22.28;20.37
39954;BME280;25631;51.516;-0.470;2023-05-27T13:33:10;102207.42;;;21.92;20.41
39954;BME280;25631;51.516;-0.470;2023-05-27T13:35:46;102202.14;;;21.97;20.32